Time;durP1;ratioP1;P1;durP2;ratioP2;P2;SDS_P1;SDS_P2;PMS_P1;PMS_P2;Temp;Humidity;BMP_temperature;BMP_pressure;BME280_temperature;BME280_humidity;BME280_pressure;Samples;Min_cycle;Max_cycle;Signal;HPM_P1;HPM_P2
2022/06/05 00:01:33;;;;;;;12.02;6.07;;;;;;;21.46;59.35;95641.94;5064366;28;20039;-79
2022/06/05 00:04:24;;;;;;;9.63;5.78;;;;;;;21.41;59.53;95636.41;5080913;28;20032;-80
2022/06/05 00:07:27;;;;;;;7.90;5.75;;;;;;;21.42;59.51;95640.78;5080735;28;20173;-81
2022/06/05 00:09:57;;;;;;;9.27;5.68;;;;;;;21.41;59.19;95644.59;5065925;28;20037;-82
2022/06/05 00:12:29;;;;;;;9.10;6.03;;;;;;;21.39;58.93;95635.81;5047323;28;20036;-81
2022/06/05 00:14:54;;;;;;;10.55;5.70;;;;;;;21.41;59.36;95634.50;5032052;28;20031;-80
2022/06/05 00:17:20;;;;;;;7.47;5.60;;;;;;;21.39;58.93;95633.94;5063831;28;20033;-81
2022/06/05 00:19:48;;;;;;;9.05;5.30;;;;;;;21.34;58.68;95637.38;5063968;28;20024;-80
2022/06/05 00:22:15;;;;;;;10.27;5.50;;;;;;;21.26;59.17;95637.75;5064394;28;20093;-81
2022/06/05 00:24:40;;;;;;;9.23;5.65;;;;;;;21.23;58.32;95639.03;5064604;28;20034;-80
2022/06/05 00:27:20;;;;;;;11.63;5.20;;;;;;;21.24;58.87;95639.88;5047636;28;20024;-80
2022/06/05 00:29:55;;;;;;;8.93;5.38;;;;;;;21.15;58.83;95647.59;5063800;28;20483;-80
2022/06/05 00:32:32;;;;;;;11.55;5.43;;;;;;;21.10;59.29;95653.75;5081151;28;20204;-81
2022/06/05 00:34:57;;;;;;;9.00;5.50;;;;;;;21.07;59.48;95645.25;5064136;28;20435;-82
2022/06/05 00:37:31;;;;;;;10.45;5.65;;;;;;;20.99;59.98;95649.13;5064560;28;20480;-79
2022/06/05 00:40:21;;;;;;;10.32;5.55;;;;;;;20.93;60.29;95650.09;5048471;28;20116;-80
2022/06/05 00:42:47;;;;;;;11.07;5.38;;;;;;;20.91;59.95;95646.75;5064985;28;20028;-79
2022/06/05 00:45:12;;;;;;;9.63;6.47;;;;;;;20.80;60.23;95630.16;5047368;28;20510;-80
2022/06/05 00:47:38;;;;;;;11.32;5.60;;;;;;;20.79;60.63;95639.41;5049484;28;20049;-81
2022/06/05 00:50:08;;;;;;;9.25;6.18;;;;;;;20.76;60.93;95648.06;5051083;28;20109;-81
2022/06/05 00:52:36;;;;;;;9.93;5.63;;;;;;;20.81;60.97;95640.00;5069538;28;20020;-80
2022/06/05 00:55:02;;;;;;;9.30;5.97;;;;;;;20.85;60.92;95643.91;5067308;28;20039;-81
2022/06/05 00:57:29;;;;;;;8.90;5.60;;;;;;;20.86;60.44;95644.75;5068224;28;20069;-80
2022/06/05 00:59:54;;;;;;;8.40;5.65;;;;;;;20.88;60.40;95648.06;5067401;28;20174;-81
2022/06/05 01:02:20;;;;;;;9.48;5.85;;;;;;;20.90;60.42;95645.09;5068395;28;20542;-80
2022/06/05 01:04:48;;;;;;;9.35;5.20;;;;;;;20.89;60.62;95647.00;5050475;28;20032;-80
2022/06/05 01:07:13;;;;;;;9.38;5.80;;;;;;;20.89;60.33;95644.28;5051450;28;20085;-80
2022/06/05 01:09:40;;;;;;;9.20;5.32;;;;;;;20.85;60.46;95633.00;5051099;28;20032;-81
2022/06/05 01:12:11;;;;;;;9.50;5.55;;;;;;;20.86;60.02;95631.94;5050564;28;20117;-81
2022/06/05 01:14:45;;;;;;;14.07;5.70;;;;;;;20.82;60.28;95636.22;5069002;28;20052;-80
2022/06/05 01:17:31;;;;;;;12.10;6.30;;;;;;;20.81;60.03;95640.00;5068077;28;20044;-81
2022/06/05 01:20:32;;;;;;;9.93;6.35;;;;;;;20.72;60.45;95639.53;5067750;28;20041;-82
2022/06/05 01:23:13;;;;;;;9.90;5.10;;;;;;;20.65;60.59;95638.00;5064780;28;20078;-80
2022/06/05 01:26:02;;;;;;;9.75;5.45;;;;;;;20.57;60.81;95634.53;5067683;28;20514;-80
2022/06/05 01:28:30;;;;;;;9.70;5.68;;;;;;;20.53;60.98;95635.25;5067461;28;20017;-80
2022/06/05 01:31:05;;;;;;;10.05;6.13;;;;;;;20.52;61.38;95639.88;5050519;28;20058;-82
2022/06/05 01:33:30;;;;;;;11.27;6.00;;;;;;;20.44;61.59;95641.03;5068378;28;20020;-79
2022/06/05 01:36:16;;;;;;;11.75;5.68;;;;;;;20.32;62.22;95641.03;5051117;28;20033;-80
2022/06/05 01:38:54;;;;;;;13.10;6.10;;;;;;;20.28;62.52;95642.56;5051734;28;20033;-80
2022/06/05 01:41:24;;;;;;;11.43;5.78;;;;;;;20.18;62.54;95645.03;5052349;28;20032;-81
2022/06/05 01:43:51;;;;;;;11.32;6.25;;;;;;;20.07;63.00;95644.75;5067081;28;20081;-80
2022/06/05 01:46:34;;;;;;;7.20;5.50;;;;;;;20.07;62.85;95638.50;5067075;28;20028;-79
2022/06/05 01:49:14;;;;;;;10.32;5.90;;;;;;;20.10;62.65;95636.13;5052654;28;20040;-79
2022/06/05 01:51:53;;;;;;;8.73;5.68;;;;;;;20.16;62.70;95633.53;5067536;28;20107;-79
2022/06/05 01:54:42;;;;;;;11.07;6.40;;;;;;;20.19;62.66;95630.34;5067689;28;20032;-80
2022/06/05 01:57:09;;;;;;;9.93;5.75;;;;;;;20.17;62.41;95629.75;5051005;28;20032;-81
2022/06/05 01:59:41;;;;;;;11.07;6.60;;;;;;;20.17;62.17;95632.50;5048976;28;20031;-79
2022/06/05 02:02:08;;;;;;;9.80;5.78;;;;;;;20.16;62.82;95630.81;5051309;28;20514;-80
2022/06/05 02:04:40;;;;;;;8.43;5.90;;;;;;;20.06;62.18;95634.94;5049763;28;20100;-80
2022/06/05 02:07:14;;;;;;;9.90;5.80;;;;;;;20.13;62.13;95637.56;5050130;28;20129;-80
2022/06/05 02:09:42;;;;;;;12.98;5.65;;;;;;;20.15;61.94;95630.00;5050004;28;20131;-80
2022/06/05 02:12:08;;;;;;;8.63;5.53;;;;;;;20.18;61.52;95626.81;5033739;28;20118;-81
2022/06/05 02:14:33;;;;;;;9.88;6.22;;;;;;;20.24;61.57;95622.31;5066785;28;20462;-80
2022/06/05 02:16:59;;;;;;;9.70;5.85;;;;;;;20.25;61.34;95634.84;5066071;28;20442;-79
2022/06/05 02:19:24;;;;;;;11.40;5.80;;;;;;;19.98;62.08;95635.22;5067382;28;20036;-80
2022/06/05 02:21:50;;;;;;;11.02;5.22;;;;;;;19.97;62.20;95622.69;5067203;28;20465;-80
2022/06/05 02:24:15;;;;;;;9.32;5.05;;;;;;;20.00;61.79;95628.50;5050216;28;20039;-81
2022/06/05 02:26:41;;;;;;;9.20;5.32;;;;;;;20.04;61.56;95642.50;5065965;28;20028;-79
2022/06/05 02:29:22;;;;;;;10.00;5.53;;;;;;;20.05;61.55;95630.56;5066380;28;20035;-81
2022/06/05 02:31:54;;;;;;;8.63;5.43;;;;;;;20.07;61.48;95622.97;5050451;28;20499;-79
2022/06/05 02:34:34;;;;;;;12.18;5.88;;;;;;;20.08;61.52;95634.69;5049369;28;20044;-80
2022/06/05 02:37:35;;;;;;;11.82;5.90;;;;;;;20.10;61.34;95625.22;5083087;28;20116;-81
2022/06/05 02:40:23;;;;;;;9.45;5.97;;;;;;;20.12;61.38;95609.50;5065989;28;20047;-80
2022/06/05 02:43:00;;;;;;;10.35;5.97;;;;;;;20.06;61.92;95620.47;5051714;28;20024;-80
2022/06/05 02:45:26;;;;;;;9.05;6.00;;;;;;;20.08;61.61;95621.09;5066541;28;20480;-80
2022/06/05 02:48:12;;;;;;;9.95;5.80;;;;;;;20.04;62.03;95618.00;5066247;28;20052;-79
2022/06/05 02:50:56;;;;;;;11.73;6.22;;;;;;;20.03;61.96;95616.34;5050249;28;20032;-82
2022/06/05 02:53:22;;;;;;;10.18;6.10;;;;;;;20.00;62.29;95616.78;5082600;28;20039;-81
2022/06/05 02:55:47;;;;;;;10.38;5.60;;;;;;;20.03;62.19;95618.22;5066927;28;20028;-81
2022/06/05 02:58:13;;;;;;;11.55;6.13;;;;;;;20.04;61.94;95625.34;5065858;28;20037;-81
2022/06/05 03:00:39;;;;;;;14.77;6.50;;;;;;;20.05;62.15;95608.78;5065245;28;20027;-81
2022/06/05 03:05:49;;;;;;;9.05;6.15;;;;;;;19.94;62.08;95604.91;5065447;28;20509;-81
2022/06/05 03:08:15;;;;;;;11.52;5.65;;;;;;;19.96;62.23;95605.53;5049188;28;20016;-81
2022/06/05 03:10:41;;;;;;;10.55;5.82;;;;;;;19.89;62.57;95621.94;5065387;28;20078;-80
2022/06/05 03:13:07;;;;;;;9.00;5.75;;;;;;;19.85;62.47;95626.19;5064976;28;20445;-81
2022/06/05 03:15:32;;;;;;;13.68;6.57;;;;;;;19.86;62.58;95621.59;5065875;28;20025;-80
2022/06/05 03:17:58;;;;;;;10.52;6.30;;;;;;;19.85;62.01;95618.03;5064900;28;20451;-81
2022/06/05 03:20:24;;;;;;;9.38;6.43;;;;;;;19.88;62.00;95628.47;5065542;28;20522;-80
2022/06/05 03:22:49;;;;;;;12.45;6.85;;;;;;;19.76;62.13;95628.41;5064724;28;20021;-81
2022/06/05 03:25:18;;;;;;;9.60;6.60;;;;;;;19.77;62.43;95623.81;5065250;28;20028;-80
2022/06/05 03:27:44;;;;;;;14.70;6.55;;;;;;;19.77;62.34;95623.81;5065131;28;20669;-81
2022/06/05 03:30:10;;;;;;;10.52;6.60;;;;;;;19.84;62.34;95630.00;5065078;28;20107;-81
2022/06/05 03:32:35;;;;;;;10.63;6.57;;;;;;;19.87;62.19;95632.25;5065233;28;20028;-80
2022/06/05 03:35:01;;;;;;;10.50;6.13;;;;;;;19.93;62.05;95643.25;5064778;28;20510;-80
2022/06/05 03:37:27;;;;;;;11.02;7.10;;;;;;;19.99;62.09;95643.16;5065259;28;20028;-80
2022/06/05 03:39:52;;;;;;;9.20;6.35;;;;;;;20.05;62.15;95641.44;5064317;28;20562;-79
2022/06/05 03:42:17;;;;;;;13.40;6.63;;;;;;;20.11;61.79;95639.69;5065083;28;20403;-81
2022/06/05 03:44:43;;;;;;;12.23;7.28;;;;;;;20.13;61.74;95638.38;5065429;28;20103;-81
2022/06/05 03:47:09;;;;;;;11.13;7.47;;;;;;;20.15;61.90;95640.88;5065029;28;20044;-80
2022/06/05 03:49:35;;;;;;;8.23;7.03;;;;;;;20.14;62.02;95639.22;5064133;28;20483;-81
2022/06/05 03:52:02;;;;;;;11.48;7.05;;;;;;;20.13;61.89;95648.44;5064704;28;20555;-81
2022/06/05 03:54:27;;;;;;;12.80;7.43;;;;;;;20.16;61.81;95649.88;5064842;28;20036;-81
2022/06/05 03:56:53;;;;;;;14.50;7.05;;;;;;;20.23;62.10;95648.69;5048005;28;20021;-80
2022/06/05 03:59:18;;;;;;;11.48;8.00;;;;;;;20.24;62.16;95654.97;5081506;28;20029;-80
2022/06/05 04:01:44;;;;;;;12.43;7.43;;;;;;;20.27;61.93;95654.50;5063858;28;20032;-80
2022/06/05 04:04:09;;;;;;;10.30;7.07;;;;;;;20.30;61.83;95654.03;5066327;28;20028;-81
2022/06/05 04:06:35;;;;;;;13.35;7.53;;;;;;;20.33;61.84;95655.50;5063778;28;20024;-80
2022/06/05 04:09:03;;;;;;;11.40;7.68;;;;;;;20.38;61.84;95655.59;5065869;28;20086;-80
2022/06/05 04:11:29;;;;;;;13.35;8.20;;;;;;;20.47;61.70;95658.81;5047545;28;20056;-80
2022/06/05 04:13:55;;;;;;;10.30;7.32;;;;;;;20.48;61.95;95655.03;5064249;28;20024;-80
2022/06/05 04:16:22;;;;;;;13.23;7.30;;;;;;;20.58;61.69;95655.28;5047869;28;20472;-80
2022/06/05 04:18:48;;;;;;;11.43;6.90;;;;;;;20.71;61.13;95650.66;5064771;28;20601;-81
2022/06/05 04:21:15;;;;;;;10.15;7.32;;;;;;;20.80;60.53;95654.69;5047494;28;20107;-81
2022/06/05 04:23:41;;;;;;;16.38;8.60;;;;;;;20.90;60.35;95645.09;5063398;28;20035;-80
2022/06/05 04:26:08;;;;;;;10.20;7.15;;;;;;;20.95;60.22;95645.25;5047753;28;20028;-81
2022/06/05 04:28:34;;;;;;;10.70;7.20;;;;;;;20.97;60.49;95635.75;5063994;28;20440;-81
2022/06/05 04:30:59;;;;;;;13.63;7.63;;;;;;;21.12;60.71;95638.00;5064021;28;20475;-79
2022/06/05 04:33:25;;;;;;;14.10;7.57;;;;;;;21.26;60.28;95637.75;5047680;28;20502;-81
2022/06/05 04:35:50;;;;;;;12.50;6.90;;;;;;;21.39;60.02;95635.81;5064918;28;20020;-81
2022/06/05 04:38:16;;;;;;;12.50;6.80;;;;;;;21.49;58.68;95630.53;5064683;28;20021;-80
2022/06/05 04:40:41;;;;;;;10.73;6.30;;;;;;;21.65;58.61;95630.88;5063186;28;20031;-81
2022/06/05 04:43:08;;;;;;;10.65;6.55;;;;;;;21.72;58.95;95634.28;5065549;28;20028;-81
2022/06/05 04:45:34;;;;;;;9.98;6.38;;;;;;;21.84;58.16;95617.88;5064690;28;20020;-80
2022/06/05 04:47:59;;;;;;;9.70;5.93;;;;;;;21.98;57.40;95621.97;5064714;28;20049;-81
2022/06/05 04:50:24;;;;;;;9.05;5.90;;;;;;;22.09;56.80;95622.97;5047451;28;20055;-81
2022/06/05 04:52:50;;;;;;;11.32;5.97;;;;;;;22.22;56.94;95630.03;5047030;28;20021;-80
2022/06/05 04:55:15;;;;;;;11.32;6.25;;;;;;;22.32;57.45;95632.13;5064452;28;20032;-80
2022/06/05 04:57:43;;;;;;;10.05;6.22;;;;;;;22.39;57.20;95639.31;5063085;28;20115;-80
2022/06/05 05:00:09;;;;;;;11.40;6.72;;;;;;;22.44;56.81;95631.22;5064204;28;20475;-80
2022/06/05 05:02:35;;;;;;;8.07;5.93;;;;;;;22.52;57.20;95636.25;5063111;28;20036;-79
2022/06/05 05:05:00;;;;;;;12.63;6.70;;;;;;;22.65;57.02;95634.31;5064342;28;20024;-80
2022/06/05 05:07:26;;;;;;;10.27;6.28;;;;;;;22.73;57.35;95628.44;5063240;28;20033;-80
2022/06/05 05:09:51;;;;;;;13.70;6.03;;;;;;;22.85;56.56;95639.25;5063255;28;20028;-81
2022/06/05 05:12:18;;;;;;;9.00;6.43;;;;;;;22.90;55.94;95638.50;5047290;28;20056;-80
2022/06/05 05:14:43;;;;;;;10.20;6.13;;;;;;;22.96;55.34;95645.69;5062696;28;20414;-80
2022/06/05 05:17:09;;;;;;;11.23;6.45;;;;;;;23.07;55.67;95646.69;5047212;28;20467;-81
2022/06/05 05:19:34;;;;;;;9.43;6.50;;;;;;;23.19;56.28;95657.50;5045880;28;20020;-80
2022/06/05 05:22:00;;;;;;;10.65;7.53;;;;;;;23.17;56.19;95645.97;5064760;28;20052;-79
2022/06/05 05:24:25;;;;;;;8.88;6.78;;;;;;;23.17;56.60;95656.91;5062716;28;20036;-80
2022/06/05 05:26:50;;;;;;;9.85;6.78;;;;;;;23.28;56.13;95647.78;5064360;28;20037;-81
2022/06/05 05:29:16;;;;;;;11.45;6.40;;;;;;;23.41;55.77;95664.94;5046583;28;20035;-79
2022/06/05 05:31:42;;;;;;;9.10;6.50;;;;;;;23.50;55.83;95657.94;5046107;28;20479;-80
2022/06/05 05:34:07;;;;;;;9.40;6.70;;;;;;;23.59;55.06;95650.09;5081837;28;20025;-83
2022/06/05 05:36:33;;;;;;;9.18;6.20;;;;;;;23.68;55.63;95655.97;5066343;28;20521;-82
2022/06/05 05:44:27;;;;;;;16.50;7.28;;;;;;;23.66;54.61;95642.53;5054289;28;20082;-81
2022/06/05 05:46:52;;;;;;;12.40;6.90;;;;;;;23.61;55.03;95647.94;5049877;28;20048;-80
2022/06/05 05:49:18;;;;;;;10.70;7.20;;;;;;;23.69;55.55;95643.94;5066171;28;20077;-80
2022/06/05 05:51:43;;;;;;;11.73;7.05;;;;;;;23.60;55.73;95642.72;5066865;28;20047;-80
2022/06/05 05:54:09;;;;;;;13.02;7.13;;;;;;;23.78;55.19;95644.31;5065021;28;20028;-81
2022/06/05 05:56:34;;;;;;;11.88;7.53;;;;;;;23.86;55.57;95648.50;5066924;28;20013;-81
2022/06/05 05:59:00;;;;;;;11.93;7.53;;;;;;;23.93;56.10;95647.22;5048935;28;20035;-81
2022/06/05 06:01:26;;;;;;;21.30;9.10;;;;;;;23.71;56.51;95650.00;5066572;28;20107;-80
2022/06/05 06:03:51;;;;;;;11.10;7.50;;;;;;;23.94;56.07;95648.84;5065776;28;20056;-81
2022/06/05 06:06:16;;;;;;;15.60;6.93;;;;;;;24.07;55.96;95647.63;5066304;28;20549;-80
2022/06/05 06:08:42;;;;;;;11.23;8.43;;;;;;;24.01;56.30;95651.41;5049791;28;20036;-81
2022/06/05 06:11:07;;;;;;;10.05;7.75;;;;;;;24.06;56.93;95656.94;5048774;28;20035;-80
2022/06/05 06:13:33;;;;;;;13.73;8.98;;;;;;;23.93;57.65;95655.44;5068283;28;20040;-79
2022/06/05 06:15:58;;;;;;;13.15;9.30;;;;;;;24.03;56.78;95657.47;5065188;28;20050;-79
2022/06/05 06:18:24;;;;;;;17.75;9.50;;;;;;;24.20;57.26;95651.91;5049840;28;20032;-81
2022/06/05 06:20:49;;;;;;;25.35;10.43;;;;;;;24.46;57.38;95647.75;5066681;28;20063;-82
2022/06/05 06:23:15;;;;;;;21.30;10.20;;;;;;;24.15;57.57;95648.25;5067397;28;20220;-80
2022/06/05 06:25:41;;;;;;;18.35;9.98;;;;;;;24.09;58.36;95641.88;5049408;28;20078;-79
2022/06/05 06:28:06;;;;;;;15.60;9.38;;;;;;;24.10;58.03;95645.47;5065721;28;20430;-80
2022/06/05 06:30:35;;;;;;;25.05;9.68;;;;;;;24.39;57.51;95645.22;5049734;28;20107;-79
2022/06/05 06:33:01;;;;;;;15.15;8.27;;;;;;;24.32;57.62;95632.56;5064642;28;20052;-80
2022/06/05 06:35:27;;;;;;;13.18;7.90;;;;;;;24.61;56.17;95633.31;5066194;28;20821;-82
2022/06/05 06:37:52;;;;;;;10.80;8.23;;;;;;;24.56;56.65;95632.22;5064910;28;20026;-80
2022/06/05 06:40:18;;;;;;;13.27;7.78;;;;;;;24.78;56.42;95628.53;5048951;28;20398;-80
2022/06/05 06:42:43;;;;;;;11.93;7.43;;;;;;;25.00;55.58;95635.84;5066608;28;20024;-80
2022/06/05 06:45:09;;;;;;;7.93;7.13;;;;;;;24.77;56.04;95631.53;5064813;28;20032;-79
2022/06/05 06:47:34;;;;;;;13.07;7.88;;;;;;;24.79;55.41;95632.94;5065568;28;20056;-80
2022/06/05 06:50:00;;;;;;;14.63;8.82;;;;;;;24.77;55.87;95632.38;5048121;28;20029;-81
2022/06/05 06:52:25;;;;;;;8.55;7.40;;;;;;;24.94;55.30;95639.63;5049128;28;20448;-81
2022/06/05 06:54:51;;;;;;;14.07;7.43;;;;;;;25.03;55.13;95635.31;5064365;28;20115;-81
2022/06/05 06:57:16;;;;;;;11.85;7.05;;;;;;;25.00;55.62;95630.34;5066871;28;20039;-83
2022/06/05 06:59:42;;;;;;;13.00;7.10;;;;;;;25.27;54.39;95636.81;5064780;28;20039;-81
2022/06/05 07:02:07;;;;;;;9.90;7.40;;;;;;;25.06;54.71;95628.47;5048674;28;20012;-80
2022/06/05 07:04:33;;;;;;;11.05;7.53;;;;;;;25.20;54.86;95628.81;5066650;28;20107;-79
2022/06/05 07:06:58;;;;;;;11.40;7.13;;;;;;;25.30;54.46;95633.53;5064966;28;20024;-80
2022/06/05 07:09:24;;;;;;;9.45;8.13;;;;;;;25.22;54.43;95626.63;5048622;28;20047;-82
2022/06/05 07:11:49;;;;;;;16.52;9.52;;;;;;;25.04;55.24;95619.66;5047571;28;20029;-80
2022/06/05 07:14:16;;;;;;;11.00;8.15;;;;;;;25.16;55.52;95624.94;5064842;28;20029;-79
2022/06/05 07:16:41;;;;;;;9.30;7.45;;;;;;;25.12;56.30;95618.31;5064049;28;20574;-80
2022/06/05 07:19:07;;;;;;;12.75;7.85;;;;;;;25.37;55.29;95623.16;5065267;28;20068;-80
2022/06/05 07:21:32;;;;;;;13.55;7.03;;;;;;;25.35;55.18;95624.47;5064073;28;20040;-80
2022/06/05 07:23:58;;;;;;;10.32;6.88;;;;;;;25.43;55.16;95624.81;5066161;28;20025;-81
2022/06/05 07:26:26;;;;;;;12.65;7.32;;;;;;;25.33;54.62;95616.53;5048318;28;20082;-80
2022/06/05 07:28:53;;;;;;;15.02;7.70;;;;;;;25.28;54.51;95614.56;5081208;28;20044;-81
2022/06/05 07:31:19;;;;;;;14.00;7.60;;;;;;;25.37;53.50;95622.31;5066045;28;20024;-80
2022/06/05 07:33:44;;;;;;;15.55;7.00;;;;;;;25.40;52.52;95610.78;5047306;28;20060;-81
2022/06/05 07:36:12;;;;;;;10.15;7.30;;;;;;;25.43;53.24;95610.25;5064857;28;20036;-80
2022/06/05 07:38:37;;;;;;;9.77;7.50;;;;;;;25.45;53.66;95602.59;5047307;28;20118;-81
2022/06/05 07:41:04;;;;;;;10.57;7.03;;;;;;;25.48;52.92;95613.03;5031241;28;20017;-80
2022/06/05 07:43:29;;;;;;;13.05;6.53;;;;;;;25.49;53.72;95602.88;5047685;28;20048;-80
2022/06/05 07:45:56;;;;;;;13.00;7.28;;;;;;;25.76;53.35;95596.41;5064189;28;20024;-79
2022/06/05 07:48:22;;;;;;;9.52;6.90;;;;;;;25.61;52.37;95595.22;5065356;28;20179;-80
2022/06/05 07:56:16;;;;;;;8.00;6.57;;;;;;;25.76;50.99;95590.91;5063428;28;20062;-80
2022/06/05 07:58:42;;;;;;;11.95;6.82;;;;;;;25.85;51.75;95593.94;5065556;28;20069;-80
2022/06/05 08:01:07;;;;;;;14.38;6.80;;;;;;;26.14;50.69;95588.78;5064417;28;20028;-80
2022/06/05 08:03:34;;;;;;;11.13;6.60;;;;;;;26.14;51.64;95593.44;5046740;28;20048;-81
2022/06/05 08:05:59;;;;;;;9.13;7.03;;;;;;;25.98;50.53;95592.59;5064413;28;20498;-80
2022/06/05 08:08:25;;;;;;;12.95;6.75;;;;;;;26.06;50.05;95597.56;5029584;28;20115;-81
2022/06/05 08:10:50;;;;;;;10.98;6.22;;;;;;;26.03;50.27;95590.69;5063825;28;20698;-81
2022/06/05 08:13:16;;;;;;;9.93;5.38;;;;;;;25.95;49.94;95585.72;5064517;28;20462;-81
2022/06/05 08:15:44;;;;;;;7.78;6.00;;;;;;;25.98;50.32;95582.44;5063835;28;20028;-80
2022/06/05 08:18:10;;;;;;;9.70;5.95;;;;;;;26.19;50.02;95584.38;5047389;28;20043;-81
2022/06/05 08:20:36;;;;;;;9.65;5.82;;;;;;;26.03;50.02;95579.69;5063115;28;20422;-80
2022/06/05 08:23:02;;;;;;;10.15;5.97;;;;;;;26.41;49.07;95589.63;5065306;28;20017;-81
2022/06/05 08:25:28;;;;;;;10.15;5.45;;;;;;;26.46;48.55;95584.13;5064358;28;20040;-81
2022/06/05 08:27:53;;;;;;;12.88;5.40;;;;;;;26.40;48.63;95582.47;5065180;28;20473;-81
2022/06/05 08:30:19;;;;;;;10.65;5.90;;;;;;;26.36;49.05;95586.91;5063881;28;20536;-82
2022/06/05 08:32:44;;;;;;;7.30;4.60;;;;;;;26.50;47.54;95585.22;5064903;28;20025;-80
2022/06/05 08:35:09;;;;;;;8.63;4.70;;;;;;;26.48;45.29;95586.59;5046632;28;20082;-82
2022/06/05 08:43:43;;;;;;;9.95;4.05;;;;;;;26.45;45.32;95582.50;5049293;28;20031;-80
2022/06/05 08:46:17;;;;;;;14.82;4.40;;;;;;;26.58;45.06;95578.34;5063610;28;20479;-79
2022/06/05 08:48:49;;;;;;;6.80;4.15;;;;;;;26.59;45.00;95577.25;5047752;28;20041;-79
2022/06/05 08:51:40;;;;;;;;;;;;;;;26.81;46.00;95581.59;5047031;28;20116;-79
2022/06/05 08:54:23;;;;;;;7.63;4.38;;;;;;;26.97;44.93;95582.41;5056222;28;19928;-80
2022/06/05 08:57:00;;;;;;;6.63;4.20;;;;;;;26.82;44.28;95576.94;5046104;28;20487;-79
2022/06/05 08:59:32;;;;;;;5.97;4.20;;;;;;;26.97;43.73;95579.66;5046632;28;20033;-80
2022/06/05 09:02:04;;;;;;;7.63;4.05;;;;;;;26.92;43.95;95565.94;5063770;28;20029;-79
2022/06/05 09:04:29;;;;;;;;;;;;;;;26.93;42.82;95575.81;5046389;28;20040;-80
2022/06/05 09:06:58;;;;;;;5.53;3.20;;;;;;;26.83;43.17;95567.56;5064538;28;20367;-82
2022/06/05 09:09:26;;;;;;;7.45;3.50;;;;;;;26.93;41.83;95563.97;5066341;28;20491;-80
2022/06/05 09:12:00;;;;;;;6.22;3.85;;;;;;;26.87;41.24;95564.00;5050984;28;20028;-81
2022/06/05 09:14:50;;;;;;;8.85;3.55;;;;;;;26.90;40.40;95557.13;5067668;28;20025;-82
2022/06/05 09:17:17;;;;;;;8.30;4.40;;;;;;;27.00;41.01;95559.84;5051648;28;20020;-81
2022/06/05 09:19:43;;;;;;;8.35;4.03;;;;;;;26.95;41.12;95564.53;5067646;28;20032;-79
2022/06/05 09:22:23;;;;;;;8.57;4.57;;;;;;;26.96;40.15;95564.25;5049519;28;20028;-79
2022/06/05 09:24:57;;;;;;;8.27;3.38;;;;;;;27.18;41.61;95562.28;5067669;28;20052;-80
2022/06/05 09:27:38;;;;;;;4.68;3.60;;;;;;;27.27;40.90;95555.94;5068550;28;20024;-80
2022/06/05 09:30:22;;;;;;;6.90;3.30;;;;;;;27.45;39.21;95556.41;5051557;28;20043;-81
2022/06/05 09:33:05;;;;;;;5.70;3.38;;;;;;;27.62;38.96;95552.44;5084295;28;20264;-80
2022/06/05 09:35:48;;;;;;;7.72;3.53;;;;;;;27.38;40.54;95542.09;5049970;28;20094;-82
2022/06/05 09:38:22;;;;;;;6.63;3.65;;;;;;;27.23;41.20;95546.56;5051733;28;20483;-81
2022/06/05 09:40:56;;;;;;;5.90;3.70;;;;;;;27.37;42.40;95543.22;5051241;28;20055;-82
2022/06/05 09:43:42;;;;;;;8.52;4.03;;;;;;;27.37;40.72;95545.97;5067140;28;20056;-82
2022/06/05 09:46:33;;;;;;;5.65;3.80;;;;;;;27.49;39.14;95543.69;5064240;28;20032;-81
2022/06/05 09:49:04;;;;;;;6.80;3.30;;;;;;;27.64;40.10;95553.81;5067834;28;20036;-82
2022/06/05 09:51:29;;;;;;;6.47;3.80;;;;;;;27.70;40.70;95540.03;5033397;28;20032;-80
2022/06/05 09:54:01;;;;;;;5.93;3.78;;;;;;;27.51;40.88;95544.25;5067378;28;20506;-83
2022/06/05 10:00:00;;;;;;;6.93;3.45;;;;;;;27.62;42.28;95542.25;5068430;28;20489;-80
2022/06/05 10:02:25;;;;;;;6.35;3.67;;;;;;;27.55;40.75;95538.19;5066867;28;20029;-82
2022/06/05 10:04:51;;;;;;;5.68;3.47;;;;;;;27.81;40.67;95527.03;5049010;28;20029;-81
2022/06/05 10:07:20;;;;;;;7.82;3.70;;;;;;;28.03;41.65;95526.59;5049721;28;20027;-81
2022/06/05 10:09:46;;;;;;;7.00;3.75;;;;;;;28.24;41.45;95523.69;5065454;28;20671;-79
2022/06/05 10:12:27;;;;;;;8.00;3.50;;;;;;;28.27;40.49;95520.34;5066200;28;20024;-81
2022/06/05 10:15:14;;;;;;;8.38;3.53;;;;;;;28.08;40.77;95522.97;5049736;28;20143;-81
2022/06/05 10:17:49;;;;;;;7.82;3.80;;;;;;;28.16;39.76;95516.84;5067121;28;20036;-81
2022/06/05 10:20:28;;;;;;;6.40;3.38;;;;;;;28.12;40.08;95515.78;5049290;28;20024;-81
2022/06/05 10:22:57;;;;;;;5.45;3.53;;;;;;;28.02;39.38;95514.75;5065360;28;20067;-80
2022/06/05 10:25:51;;;;;;;7.57;3.70;;;;;;;28.09;39.95;95508.91;5066222;28;20051;-81
2022/06/05 10:28:19;;;;;;;8.43;3.50;;;;;;;28.11;40.33;95503.94;5050420;28;20031;-80
2022/06/05 10:31:03;;;;;;;6.10;3.47;;;;;;;27.83;41.14;95497.25;5065335;28;20119;-81
2022/06/05 10:33:49;;;;;;;14.18;4.47;;;;;;;28.06;42.17;95500.38;5050901;28;20108;-79
2022/06/05 10:36:16;;;;;;;6.97;3.42;;;;;;;28.08;40.45;95492.66;5081795;28;20055;-80
2022/06/05 10:38:42;;;;;;;5.70;3.38;;;;;;;28.17;39.25;95498.34;5065921;28;20025;-81
2022/06/05 10:41:32;;;;;;;6.18;3.40;;;;;;;28.25;38.11;95501.34;5067199;28;20031;-80
2022/06/05 10:44:31;;;;;;;4.18;2.80;;;;;;;28.05;37.57;95488.53;5065030;28;20051;-81
2022/06/05 10:47:44;;;;;;;6.43;2.92;;;;;;;28.15;39.50;95484.88;5051383;28;20045;-81
2022/06/05 10:50:20;;;;;;;4.28;2.50;;;;;;;28.13;36.97;95476.09;5050230;28;20044;-80
2022/06/05 10:53:11;;;;;;;6.13;2.00;;;;;;;28.10;34.76;95482.19;5048317;28;20100;-80
2022/06/05 10:55:45;;;;;;;5.03;1.95;;;;;;;28.16;33.67;95481.00;5067109;28;20044;-81
2022/06/05 10:58:35;;;;;;;7.32;1.95;;;;;;;28.61;33.27;95488.34;5065154;28;20031;-83
2022/06/05 11:01:12;;;;;;;4.97;1.85;;;;;;;28.69;34.06;95482.19;5066264;28;20063;-81
2022/06/05 11:04:00;;;;;;;2.92;1.58;;;;;;;28.69;32.54;95478.59;5082336;28;20032;-80
2022/06/05 11:06:44;;;;;;;7.30;1.80;;;;;;;28.69;33.08;95486.88;5049624;28;20040;-81
2022/06/05 11:09:38;;;;;;;10.60;1.65;;;;;;;28.80;31.06;95471.84;5066616;28;20051;-81
2022/06/05 11:15:39;;;;;;;7.60;1.25;;;;;;;29.15;29.21;95477.25;5064245;28;20029;-81
2022/06/05 11:18:18;;;;;;;;;;;;;;;29.33;28.46;95469.28;5065614;28;20086;-80
2022/06/05 11:20:50;;;;;;;2.97;1.13;;;;;;;29.34;27.51;95470.94;5065127;28;19920;-80
2022/06/05 11:23:19;;;;;;;;;;;;;;;29.20;27.55;95462.53;5048939;28;20043;-80
2022/06/05 11:26:06;;;;;;;4.38;1.30;;;;;;;29.27;29.70;95454.72;5048135;28;19961;-81
2022/06/05 11:28:53;;;;;;;6.97;1.60;;;;;;;29.32;30.19;95462.13;5081568;28;20024;-80
2022/06/05 11:31:48;;;;;;;6.93;1.90;;;;;;;29.48;29.90;95462.72;5081131;28;20038;-81
2022/06/05 11:34:38;;;;;;;9.82;1.80;;;;;;;29.72;29.55;95461.84;5066637;28;20501;-81
2022/06/05 11:37:15;;;;;;;5.40;1.42;;;;;;;29.89;30.63;95461.28;5064430;28;20039;-80
2022/06/05 11:40:01;;;;;;;3.85;1.50;;;;;;;30.17;30.13;95463.34;5065544;28;20070;-80
2022/06/05 11:42:31;;;;;;;3.30;1.90;;;;;;;29.93;32.36;95456.00;5064671;28;20342;-80
2022/06/05 11:45:14;;;;;;;4.20;2.38;;;;;;;29.63;32.04;95461.72;5049409;28;20047;-80
2022/06/05 11:48:00;;;;;;;6.35;2.65;;;;;;;29.37;32.84;95460.09;5068145;28;20174;-81
2022/06/05 11:50:36;;;;;;;6.47;2.58;;;;;;;29.32;33.14;95453.84;5050670;28;20029;-81
2022/06/05 11:53:04;;;;;;;6.95;2.13;;;;;;;29.41;32.29;95456.75;5065386;28;20037;-83
2022/06/05 11:55:51;;;;;;;3.78;1.80;;;;;;;29.34;32.00;95462.66;5064783;28;20107;-80
2022/06/05 11:58:25;;;;;;;4.35;1.83;;;;;;;29.43;32.51;95462.78;5063673;28;20037;-79
2022/06/05 12:00:54;;;;;;;5.07;2.20;;;;;;;29.14;33.68;95459.03;5064439;28;20033;-80
2022/06/05 12:03:29;;;;;;;6.25;2.03;;;;;;;29.03;33.50;95463.88;5047804;28;20116;-80
2022/06/05 12:06:07;;;;;;;5.97;2.08;;;;;;;29.08;33.48;95454.72;5063532;28;20028;-81
2022/06/05 12:08:52;;;;;;;5.75;2.00;;;;;;;29.40;33.77;95455.09;5064437;28;20470;-79
2022/06/05 12:11:25;;;;;;;4.93;2.60;;;;;;;29.77;32.02;95444.38;5063454;28;20029;-79
2022/06/05 12:13:56;;;;;;;3.85;1.70;;;;;;;29.95;32.40;95438.00;5064084;28;20081;-80